ENKB

Kristiansund , Kvernberget Airport

Kvernberget, Norway
METAR ENKB 170550Z AUTO 22012KT 9999 UP FEW009/// SCT035/// BKN043/// 02/M00 Q1009 RESN RMK WIND 745FT 22021KT
Observed Flight Rules
Dec-17 @ 05:50 UTC (25 minutes ago) Visual Flight Rules
Wind Visibility Clouds Conditions
220° at 12 knots 10,000+ meters
  • Few at 900' AGL
  • Scattered at 3,500' AGL
  • Broken at 4,300' AGL
  • Unknown precipitation
Temperatures Readings
Current 2°C / 36°F
Dewpoint 0°C / 32°F
Humidity 87%
Altimeter 29.79" Hg
Pressure 1009 hPa
Elevation 62
METAR ENKB 170550Z AUTO 22012KT 9999 UP FEW009/// SCT035/// BKN043/// 02/M00 Q1009 RESN RMK WIND 745FT 22021KT
Observed Flight Rules
Dec-17 @ 05:50 UTC
(25 minutes ago)
VFR
Wind Visibility
220° at 12 knots 10,000+ meters
Clouds
  • Few at 900' AGL
  • Scattered at 3,500' AGL
  • Broken at 4,300' AGL
Conditions
  • Unknown precipitation
Temperature Dewpoint
2°C / 36°F 0°C / 32°F
Humidity Altimeter Pressure
87% 29.79" Hg 1009 hPa